Time;durP1;ratioP1;P1;durP2;ratioP2;P2;SDS_P1;SDS_P2;PMS_P1;PMS_P2;Temp;Humidity;BMP_temperature;BMP_pressure;BME280_temperature;BME280_humidity;BME280_pressure;Samples;Min_cycle;Max_cycle;Signal;HPM_P1;HPM_P2
2022/03/28 04:01:00;;;;;;;10.07;8.53;;;0.50;96.30;;;;;;5654155;23;20507;-79
2022/03/28 04:03:26;;;;;;;10.43;7.50;;;0.40;96.30;;;;;;4956478;28;20421;-78
2022/03/28 04:05:51;;;;;;;13.60;10.37;;;0.50;96.30;;;;;;4957966;28;20174;-76
2022/03/28 04:08:17;;;;;;;9.80;8.80;;;0.50;96.30;;;;;;4957445;28;20212;-78
2022/03/28 04:10:43;;;;;;;10.60;8.60;;;0.50;96.30;;;;;;4958003;28;20201;-78
2022/03/28 04:13:10;;;;;;;12.47;9.27;;;0.60;96.30;;;;;;4958158;28;20626;-78
2022/03/28 04:15:35;;;;;;;12.67;9.07;;;0.50;96.30;;;;;;4957613;28;20240;-78
2022/03/28 04:18:00;;;;;;;13.07;9.10;;;0.50;96.30;;;;;;4958380;28;20413;-74
2022/03/28 04:28:07;;;;;;;11.77;9.03;;;0.40;96.30;;;;;;4954095;29;20571;-74
2022/03/28 04:30:32;;;;;;;11.13;9.03;;;0.40;96.30;;;;;;4959101;28;20441;-77
2022/03/28 04:32:58;;;;;;;10.73;9.00;;;0.50;96.30;;;;;;4957227;28;20257;-74
2022/03/28 04:35:23;;;;;;;10.57;8.80;;;0.50;96.30;;;;;;4974671;28;20229;-74
2022/03/28 04:37:49;;;;;;;11.60;9.10;;;0.50;96.30;;;;;;4974703;28;20218;-76
2022/03/28 04:40:16;;;;;;;11.40;8.43;;;0.50;96.30;;;;;;4974736;28;20178;-74
2022/03/28 04:42:43;;;;;;;12.67;9.27;;;0.40;96.30;;;;;;4957353;28;20186;-74
2022/03/28 04:45:09;;;;;;;12.70;9.83;;;0.40;96.30;;;;;;4956276;28;20464;-74
2022/03/28 04:47:35;;;;;;;10.80;9.33;;;0.40;96.30;;;;;;4974417;28;20957;-77
2022/03/28 04:50:01;;;;;;;11.30;9.53;;;0.50;96.30;;;;;;4957220;28;20465;-74
2022/03/28 04:52:27;;;;;;;13.90;10.73;;;0.60;96.30;;;;;;4957085;28;20202;-74
2022/03/28 04:54:52;;;;;;;11.67;9.30;;;0.50;96.30;;;;;;4957049;28;20961;-74
2022/03/28 04:57:18;;;;;;;12.60;9.80;;;0.50;96.30;;;;;;4974293;28;20180;-75
2022/03/28 04:59:43;;;;;;;12.00;10.50;;;0.40;96.30;;;;;;4974231;28;20213;-77
2022/03/28 05:02:09;;;;;;;14.30;10.50;;;0.50;96.30;;;;;;4974192;28;20582;-74
2022/03/28 05:04:35;;;;;;;13.50;9.87;;;0.50;96.30;;;;;;4956929;28;20549;-74
2022/03/28 05:07:00;;;;;;;12.10;9.13;;;0.50;96.30;;;;;;4956891;28;20617;-74
2022/03/28 05:09:26;;;;;;;15.00;11.40;;;0.50;96.30;;;;;;4973489;28;20173;-75
2022/03/28 05:11:51;;;;;;;15.20;11.27;;;0.50;96.30;;;;;;4974066;28;20557;-74
2022/03/28 05:14:18;;;;;;;11.90;9.97;;;0.50;96.30;;;;;;4974238;28;20208;-74
2022/03/28 05:16:44;;;;;;;12.10;9.70;;;0.50;96.30;;;;;;4974058;28;20296;-74
2022/03/28 05:19:09;;;;;;;13.70;10.37;;;0.60;96.30;;;;;;4973783;28;20913;-74
2022/03/28 05:21:35;;;;;;;12.83;10.13;;;0.60;96.30;;;;;;4956519;28;20202;-74
2022/03/28 05:24:00;;;;;;;15.77;11.97;;;0.70;96.30;;;;;;4973982;28;20174;-76
2022/03/28 05:26:26;;;;;;;26.90;18.60;;;0.80;96.30;;;;;;4973902;28;20200;-74
2022/03/28 05:28:52;;;;;;;26.93;19.47;;;0.80;96.30;;;;;;4956302;28;20193;-74
2022/03/28 05:31:18;;;;;;;22.00;15.10;;;0.90;96.30;;;;;;4956533;28;20402;-74
2022/03/28 05:33:43;;;;;;;13.33;10.17;;;1.00;96.30;;;;;;4956826;28;20952;-75
2022/03/28 05:36:09;;;;;;;17.90;12.27;;;1.10;96.30;;;;;;4973711;28;20208;-75
2022/03/28 05:38:35;;;;;;;13.43;10.77;;;1.30;96.30;;;;;;4973555;28;20653;-79
2022/03/28 05:41:00;;;;;;;17.07;13.23;;;1.60;96.30;;;;;;4973614;28;20269;-75
2022/03/28 05:43:26;;;;;;;16.53;12.80;;;2.50;96.30;;;;;;4973728;28;20181;-76
2022/03/28 05:45:52;;;;;;;14.90;11.60;;;3.60;96.30;;;;;;4956028;28;20282;-76
2022/03/28 05:48:19;;;;;;;15.00;12.00;;;4.80;96.30;;;;;;4955980;28;20551;-76
2022/03/28 05:50:46;;;;;;;17.83;11.27;;;6.00;96.30;;;;;;4973378;28;20818;-75
2022/03/28 05:53:13;;;;;;;13.87;10.70;;;6.80;96.30;;;;;;4973510;28;20409;-78
2022/03/28 05:55:40;;;;;;;10.93;9.73;;;7.50;96.30;;;;;;4973270;28;20456;-75
2022/03/28 05:58:07;;;;;;;11.90;9.77;;;8.40;96.30;;;;;;4973150;28;20428;-75
2022/03/28 06:00:32;;;;;;;9.50;8.50;;;8.90;96.30;;;;;;4973149;28;20433;-75
2022/03/28 06:02:58;;;;;;;10.30;9.03;;;9.50;96.30;;;;;;4973341;28;20413;-75
2022/03/28 06:05:23;;;;;;;9.87;8.87;;;9.10;96.30;;;;;;4957043;28;20170;-79
2022/03/28 06:07:49;;;;;;;9.03;7.53;;;9.90;96.30;;;;;;4967531;28;20704;-77
2022/03/28 06:10:15;;;;;;;9.20;8.27;;;10.40;96.30;;;;;;4992597;28;20178;-79
2022/03/28 06:12:40;;;;;;;13.90;8.40;;;10.80;96.30;;;;;;4992654;28;20173;-78
2022/03/28 06:15:06;;;;;;;9.83;8.53;;;10.90;96.30;;;;;;4992458;28;20209;-77
2022/03/28 06:17:32;;;;;;;10.10;8.10;;;10.80;96.30;;;;;;4992253;28;20704;-77
2022/03/28 06:19:57;;;;;;;10.23;8.67;;;11.30;96.30;;;;;;4992493;28;20538;-76
2022/03/28 06:22:23;;;;;;;10.20;9.17;;;11.60;96.30;;;;;;4992401;28;20279;-76
2022/03/28 06:24:48;;;;;;;10.20;8.40;;;12.00;96.30;;;;;;4992479;28;20268;-76
2022/03/28 06:27:14;;;;;;;9.27;8.37;;;12.40;95.20;;;;;;4968410;28;20202;-75
2022/03/28 06:29:40;;;;;;;12.70;9.40;;;12.30;94.60;;;;;;4953828;28;20289;-75
2022/03/28 06:32:06;;;;;;;12.60;9.30;;;12.20;96.30;;;;;;4952127;28;20987;-75
2022/03/28 06:34:31;;;;;;;9.63;8.63;;;12.40;94.60;;;;;;4972956;28;20257;-76
2022/03/28 06:36:57;;;;;;;9.97;8.70;;;12.70;94.00;;;;;;4972757;28;20249;-76
2022/03/28 06:39:23;;;;;;;12.83;9.13;;;12.70;92.80;;;;;;4972365;28;20559;-76
2022/03/28 06:41:49;;;;;;;9.87;7.83;;;13.20;91.80;;;;;;4972751;28;20430;-76
2022/03/28 06:44:15;;;;;;;10.73;9.03;;;13.00;93.40;;;;;;4972561;28;20421;-76
2022/03/28 06:46:42;;;;;;;14.10;9.70;;;13.50;90.90;;;;;;4972942;28;20249;-76
2022/03/28 06:49:08;;;;;;;12.03;9.70;;;13.90;90.20;;;;;;4972241;28;20518;-76
2022/03/28 06:51:34;;;;;;;11.87;9.13;;;14.20;89.70;;;;;;4972946;28;20436;-77
2022/03/28 06:54:00;;;;;;;10.00;8.33;;;14.40;88.70;;;;;;4955670;28;20460;-76
2022/03/28 06:56:25;;;;;;;12.13;9.13;;;13.90;89.60;;;;;;4972458;28;20484;-79
2022/03/28 06:58:52;;;;;;;10.40;9.40;;;14.60;87.80;;;;;;4972334;28;20185;-76
2022/03/28 07:01:18;;;;;;;9.83;8.83;;;14.50;88.30;;;;;;4972755;28;20193;-77
2022/03/28 07:03:43;;;;;;;8.80;7.97;;;15.00;87.10;;;;;;4972703;28;20409;-76
2022/03/28 07:06:09;;;;;;;10.00;8.67;;;15.50;85.20;;;;;;4960694;28;20190;-76
2022/03/28 07:08:35;;;;;;;11.27;8.90;;;15.50;85.30;;;;;;4960798;28;20273;-77
2022/03/28 07:11:01;;;;;;;16.80;8.93;;;15.50;84.90;;;;;;4981173;28;20202;-77
2022/03/28 07:13:27;;;;;;;10.50;9.40;;;15.60;84.80;;;;;;4983098;28;20409;-76
2022/03/28 07:15:52;;;;;;;10.33;9.33;;;16.10;83.50;;;;;;4987410;28;20899;-77
2022/03/28 07:18:18;;;;;;;12.77;9.17;;;15.80;83.80;;;;;;4969229;28;20178;-76
2022/03/28 07:20:43;;;;;;;13.30;9.13;;;15.80;84.70;;;;;;4974871;28;20843;-76
2022/03/28 07:23:10;;;;;;;12.60;9.43;;;15.90;84.60;;;;;;4975776;28;20166;-76
2022/03/28 07:25:36;;;;;;;11.30;9.67;;;16.10;83.40;;;;;;4975906;28;20213;-76
2022/03/28 07:28:07;;;;;;;11.73;9.77;;;15.80;84.40;;;;;;4974992;28;20797;-76
2022/03/28 07:30:33;;;;;;;11.53;10.33;;;16.80;82.80;;;;;;4975696;28;20429;-77
2022/03/28 07:32:59;;;;;;;13.23;9.67;;;17.00;81.60;;;;;;4957591;28;20418;-77
2022/03/28 07:35:25;;;;;;;9.97;8.97;;;17.20;80.90;;;;;;4983260;28;20194;-75
2022/03/28 07:37:51;;;;;;;10.63;9.30;;;17.90;79.40;;;;;;4965597;28;20557;-79
2022/03/28 07:40:17;;;;;;;10.23;9.17;;;17.90;79.70;;;;;;4969478;28;21217;-75
2022/03/28 07:42:43;;;;;;;11.63;8.73;;;18.30;78.40;;;;;;4972117;28;20433;-80
2022/03/28 07:45:10;;;;;;;9.77;8.87;;;19.20;76.30;;;;;;4977087;28;20414;-75
2022/03/28 07:47:36;;;;;;;11.73;9.07;;;18.90;76.10;;;;;;4974509;28;20650;-81
2022/03/28 07:50:02;;;;;;;9.93;8.97;;;18.80;77.10;;;;;;4972714;28;20433;-75
2022/03/28 07:52:29;;;;;;;10.07;9.07;;;18.60;78.20;;;;;;4966561;28;20556;-75
2022/03/28 07:54:55;;;;;;;9.70;8.73;;;19.20;76.80;;;;;;4972649;28;20480;-75
2022/03/28 07:57:21;;;;;;;12.40;9.80;;;18.50;77.90;;;;;;4974902;28;20432;-76
2022/03/28 07:59:47;;;;;;;12.30;8.60;;;18.70;78.40;;;;;;4972746;28;20429;-77
2022/03/28 08:02:14;;;;;;;15.17;8.90;;;19.60;76.30;;;;;;4974390;28;20206;-75
2022/03/28 08:04:40;;;;;;;9.97;8.90;;;18.80;78.00;;;;;;4970800;28;20425;-77
2022/03/28 08:07:08;;;;;;;10.17;9.17;;;19.70;77.30;;;;;;4972371;28;20422;-74
2022/03/28 08:09:37;;;;;;;10.17;9.20;;;19.90;76.80;;;;;;4973555;28;20241;-75
2022/03/28 08:12:05;;;;;;;12.27;9.80;;;19.40;80.50;;;;;;4974428;28;20495;-76
2022/03/28 08:14:30;;;;;;;10.47;9.57;;;19.80;81.50;;;;;;4974918;28;20467;-78
2022/03/28 08:16:56;;;;;;;10.40;9.50;;;20.40;79.20;;;;;;4968748;28;20417;-77
2022/03/28 08:19:22;;;;;;;10.33;9.53;;;21.00;73.80;;;;;;4957938;28;20260;-75
2022/03/28 08:21:48;;;;;;;10.83;9.73;;;20.60;79.00;;;;;;4971044;28;20241;-78
2022/03/28 08:24:14;;;;;;;10.70;9.70;;;21.00;76.50;;;;;;4983714;28;20420;-76
2022/03/28 08:26:39;;;;;;;11.57;10.57;;;20.90;76.70;;;;;;4988802;28;20248;-75
2022/03/28 08:29:05;;;;;;;10.50;9.60;;;21.40;76.20;;;;;;4974857;28;20186;-75
2022/03/28 08:31:31;;;;;;;9.77;8.87;;;21.70;75.10;;;;;;4957453;28;20232;-75
2022/03/28 08:33:57;;;;;;;11.33;9.27;;;21.20;71.40;;;;;;4974764;28;20487;-75
2022/03/28 08:36:23;;;;;;;9.77;8.70;;;20.50;73.90;;;;;;4974665;28;20956;-78
2022/03/28 08:38:48;;;;;;;22.87;10.37;;;20.90;76.60;;;;;;4969385;28;20177;-75
2022/03/28 08:41:18;;;;;;;10.67;9.77;;;20.90;76.70;;;;;;4974770;28;20332;-76
2022/03/28 08:43:44;;;;;;;12.53;9.80;;;21.10;77.80;;;;;;4974578;28;20526;-75
2022/03/28 08:46:11;;;;;;;11.10;10.10;;;21.30;75.20;;;;;;4974390;28;20432;-77
2022/03/28 08:48:40;;;;;;;10.00;8.60;;;21.00;76.10;;;;;;4974364;28;20184;-75
2022/03/28 08:51:07;;;;;;;9.57;8.77;;;21.30;78.70;;;;;;4974297;28;20441;-75
2022/03/28 08:53:33;;;;;;;9.27;8.33;;;21.80;73.60;;;;;;4974563;28;20440;-75
2022/03/28 08:55:58;;;;;;;9.37;8.50;;;21.20;76.50;;;;;;4970845;28;20535;-77
2022/03/28 08:58:24;;;;;;;10.17;9.17;;;21.20;75.30;;;;;;4975711;28;20252;-76
2022/03/28 09:00:49;;;;;;;9.60;8.60;;;21.40;77.60;;;;;;4974418;28;20194;-77
2022/03/28 09:03:15;;;;;;;20.03;8.47;;;21.50;78.10;;;;;;4971520;28;20181;-77
2022/03/28 09:05:42;;;;;;;9.70;8.67;;;21.40;78.90;;;;;;4967994;28;20174;-74
2022/03/28 09:08:09;;;;;;;17.37;8.87;;;20.90;79.30;;;;;;4969046;28;20261;-77
2022/03/28 09:10:35;;;;;;;9.93;9.00;;;21.20;77.50;;;;;;4964009;28;20436;-77
2022/03/28 09:13:10;;;;;;;9.43;8.53;;;20.80;77.90;;;;;;4968874;28;20428;-74
2022/03/28 09:15:45;;;;;;;10.43;9.43;;;21.40;81.00;;;;;;4972995;28;20448;-74
2022/03/28 09:18:25;;;;;;;10.90;9.50;;;20.80;79.80;;;;;;4971647;28;20940;-74
2022/03/28 09:20:53;;;;;;;9.57;8.73;;;20.60;81.90;;;;;;4973719;28;20832;-75
2022/03/28 09:23:37;;;;;;;10.37;9.47;;;20.90;81.60;;;;;;4969877;28;20422;-75
2022/03/28 09:26:16;;;;;;;12.33;8.50;;;21.30;82.60;;;;;;4963082;28;20856;-77
2022/03/28 09:28:56;;;;;;;10.40;9.50;;;21.60;79.90;;;;;;4959768;28;20997;-76
2022/03/28 09:31:44;;;;;;;10.00;8.97;;;22.00;77.90;;;;;;4952950;28;20441;-76
2022/03/28 09:34:15;;;;;;;11.30;9.40;;;21.90;77.40;;;;;;4974304;28;20913;-75
2022/03/28 09:36:53;;;;;;;14.40;9.70;;;21.70;77.10;;;;;;4973582;28;20452;-76
2022/03/28 09:39:21;;;;;;;11.40;9.30;;;22.10;77.50;;;;;;4986009;28;20428;-75
2022/03/28 09:42:06;;;;;;;10.23;9.23;;;21.80;77.80;;;;;;4981108;28;20430;-76
2022/03/28 09:44:33;;;;;;;9.40;8.50;;;21.50;77.90;;;;;;4965246;28;20446;-78
2022/03/28 09:47:12;;;;;;;8.43;7.60;;;22.00;75.70;;;;;;4967865;28;20426;-76
2022/03/28 09:49:39;;;;;;;8.60;7.63;;;22.20;75.60;;;;;;4960643;28;20422;-76
2022/03/28 09:52:13;;;;;;;8.40;6.30;;;22.00;75.60;;;;;;4965886;28;20438;-77
2022/03/28 09:54:52;;;;;;;7.20;6.37;;;21.90;71.40;;;;;;4975302;28;20432;-76
2022/03/28 09:57:35;;;;;;;9.00;6.50;;;20.90;73.40;;;;;;4973586;28;20424;-76
2022/03/28 10:00:12;;;;;;;7.40;6.70;;;21.40;77.60;;;;;;4973266;28;20422;-75
2022/03/28 10:02:38;;;;;;;7.80;6.87;;;21.40;75.60;;;;;;4973171;28;20426;-76
2022/03/28 10:05:05;;;;;;;10.60;6.40;;;21.10;78.10;;;;;;4980919;28;20427;-75
2022/03/28 10:07:31;;;;;;;7.93;6.80;;;20.90;78.50;;;;;;4973303;28;20174;-76
2022/03/28 10:09:58;;;;;;;11.17;7.33;;;19.50;82.80;;;;;;4973417;28;20973;-75
2022/03/28 10:12:23;;;;;;;9.40;6.70;;;20.60;83.90;;;;;;4972779;28;20458;-75
2022/03/28 10:14:57;;;;;;;6.20;5.60;;;20.30;79.10;;;;;;4973276;28;20763;-75
2022/03/28 10:17:24;;;;;;;8.20;6.70;;;20.20;79.20;;;;;;4973449;28;20261;-76
2022/03/28 10:19:50;;;;;;;8.60;6.30;;;20.40;83.00;;;;;;4974792;28;20410;-76
2022/03/28 10:22:21;;;;;;;8.30;6.70;;;20.80;80.90;;;;;;4958763;28;20533;-75
2022/03/28 10:24:50;;;;;;;7.83;6.90;;;20.60;81.90;;;;;;4978170;28;20504;-76
2022/03/28 10:27:16;;;;;;;7.63;6.30;;;20.30;78.20;;;;;;4982734;28;20436;-76
2022/03/28 10:29:43;;;;;;;9.00;6.07;;;20.10;82.90;;;;;;4975740;28;20994;-76
2022/03/28 10:32:18;;;;;;;8.20;5.90;;;20.60;85.00;;;;;;4972966;28;20196;-77
2022/03/28 10:34:56;;;;;;;9.37;7.00;;;21.00;78.20;;;;;;4973480;28;20939;-78
2022/03/28 10:37:39;;;;;;;7.93;6.60;;;21.00;78.70;;;;;;4973514;28;20456;-79
2022/03/28 10:40:29;;;;;;;11.73;8.20;;;20.80;79.40;;;;;;4973188;28;20413;-79
2022/03/28 10:43:09;;;;;;;8.77;7.30;;;21.00;83.10;;;;;;4973659;28;20919;-77
2022/03/28 10:45:45;;;;;;;13.30;6.30;;;21.20;79.70;;;;;;4958906;28;21026;-79
2022/03/28 10:48:10;;;;;;;7.30;6.60;;;20.70;83.60;;;;;;4965554;28;20539;-79
2022/03/28 10:50:48;;;;;;;8.97;6.93;;;20.90;78.40;;;;;;4979869;28;20504;-79
2022/03/28 10:53:26;;;;;;;9.07;7.47;;;20.90;79.30;;;;;;4986697;28;20193;-79
2022/03/28 10:55:58;;;;;;;11.00;7.53;;;20.80;83.30;;;;;;4980961;28;20445;-79
2022/03/28 10:58:27;;;;;;;10.20;7.23;;;20.50;85.80;;;;;;4959624;28;20877;-78
2022/03/28 11:01:09;;;;;;;7.53;6.73;;;20.00;84.90;;;;;;4975810;28;20425;-80
2022/03/28 11:03:58;;;;;;;8.57;7.20;;;20.00;85.40;;;;;;4951415;28;20472;-77
2022/03/28 11:06:50;;;;;;;11.63;6.87;;;20.00;85.40;;;;;;4999873;28;20421;-81
2022/03/28 11:09:34;;;;;;;20.30;7.17;;;20.00;87.50;;;;;;4970012;28;20410;-79
2022/03/28 11:12:04;;;;;;;9.47;7.33;;;20.20;88.90;;;;;;4997203;28;20429;-78
2022/03/28 11:14:45;;;;;;;11.83;6.03;;;19.80;87.00;;;;;;4989074;28;20425;-76
2022/03/28 11:17:20;;;;;;;7.90;7.10;;;19.80;87.00;;;;;;4967200;28;20503;-78
2022/03/28 11:20:01;;;;;;;9.17;7.27;;;19.90;88.80;;;;;;4958467;28;20503;-76
2022/03/28 11:22:47;;;;;;;8.53;7.57;;;20.20;88.50;;;;;;4962503;28;20448;-79
2022/03/28 11:25:35;;;;;;;9.00;8.03;;;20.00;86.50;;;;;;4981467;28;20410;-79
2022/03/28 11:28:20;;;;;;;10.10;7.90;;;19.80;86.00;;;;;;4978344;28;20441;-78
2022/03/28 11:30:46;;;;;;;11.27;7.37;;;;;;;;;;4958265;28;20562;-79
2022/03/28 11:33:15;;;;;;;11.90;8.43;;;20.00;86.40;;;;;;4980468;28;20813;-79
2022/03/28 11:36:04;;;;;;;9.40;6.90;;;19.60;84.70;;;;;;4979889;28;20198;-79
2022/03/28 11:38:33;;;;;;;9.27;7.40;;;19.70;91.70;;;;;;4962383;28;20433;-78
2022/03/28 11:41:01;;;;;;;7.40;6.67;;;20.50;87.10;;;;;;4978866;28;20532;-79
2022/03/28 11:43:47;;;;;;;13.23;7.73;;;20.50;86.60;;;;;;4961941;28;20480;-79
2022/03/28 11:46:18;;;;;;;8.00;7.20;;;20.30;87.50;;;;;;4977246;28;20448;-79
2022/03/28 11:48:59;;;;;;;12.27;8.00;;;20.40;85.90;;;;;;4972362;28;20434;-76
2022/03/28 11:51:28;;;;;;;10.97;8.20;;;20.60;87.70;;;;;;4971599;28;20439;-76
2022/03/28 11:53:54;;;;;;;10.00;8.33;;;20.40;86.90;;;;;;4972863;28;20817;-75
2022/03/28 11:56:30;;;;;;;9.50;8.50;;;20.90;88.80;;;;;;4974334;28;20465;-76
2022/03/28 11:59:07;;;;;;;9.13;7.43;;;20.90;84.60;;;;;;4970113;28;20849;-76
2022/03/28 12:01:35;;;;;;;8.53;7.63;;;20.80;88.10;;;;;;4974091;28;20441;-75
2022/03/28 12:04:02;;;;;;;9.57;8.33;;;20.90;84.70;;;;;;4972406;28;20414;-75
2022/03/28 12:06:31;;;;;;;10.90;8.17;;;20.60;85.90;;;;;;4956214;28;20430;-78
2022/03/28 12:08:57;;;;;;;8.67;7.77;;;20.50;86.60;;;;;;4950316;28;20437;-76
2022/03/28 12:11:24;;;;;;;8.83;7.93;;;19.40;87.10;;;;;;4966980;28;20907;-77
2022/03/28 12:13:50;;;;;;;10.80;8.50;;;19.40;87.40;;;;;;4972110;28;20433;-76
2022/03/28 12:16:16;;;;;;;10.27;9.17;;;19.90;89.30;;;;;;4971896;28;20453;-76
2022/03/28 12:18:42;;;;;;;9.27;8.43;;;20.00;87.60;;;;;;4972881;28;20424;-77
2022/03/28 12:21:08;;;;;;;10.73;7.77;;;20.10;88.00;;;;;;4954907;28;20191;-78
2022/03/28 12:23:33;;;;;;;8.13;7.30;;;20.50;88.40;;;;;;4956122;28;20189;-76
2022/03/28 12:26:04;;;;;;;11.87;8.07;;;20.00;85.10;;;;;;4973276;28;20792;-78
2022/03/28 12:28:33;;;;;;;9.17;8.27;;;19.90;85.60;;;;;;4972181;28;20175;-77
2022/03/28 12:30:59;;;;;;;12.23;8.67;;;20.10;85.90;;;;;;4973004;28;20576;-75
2022/03/28 12:33:38;;;;;;;17.37;7.40;;;19.90;86.00;;;;;;4954497;28;20429;-76
2022/03/28 12:36:22;;;;;;;9.23;7.83;;;20.20;84.60;;;;;;4973288;28;20449;-77
2022/03/28 12:38:56;;;;;;;8.67;7.53;;;19.70;88.40;;;;;;4948283;28;20492;-76
2022/03/28 12:41:22;;;;;;;9.53;8.33;;;19.50;88.10;;;;;;4955411;28;20483;-77
2022/03/28 12:43:50;;;;;;;10.10;7.77;;;19.40;87.90;;;;;;4973201;28;20418;-75
2022/03/28 12:46:16;;;;;;;12.97;8.00;;;20.20;92.50;;;;;;4971187;28;20249;-76
2022/03/28 12:48:53;;;;;;;9.63;8.70;;;20.50;87.10;;;;;;4971672;28;20421;-76
2022/03/28 12:51:29;;;;;;;10.00;8.97;;;19.90;86.40;;;;;;4970755;28;20202;-76
2022/03/28 12:54:06;;;;;;;9.03;7.27;;;19.30;89.10;;;;;;4955806;28;20451;-78
2022/03/28 12:56:43;;;;;;;11.60;7.20;;;19.80;88.40;;;;;;4973266;28;20453;-75
2022/03/28 12:59:10;;;;;;;10.00;7.43;;;20.70;87.40;;;;;;4973746;28;20790;-76
2022/03/28 13:01:36;;;;;;;10.63;7.67;;;20.60;84.70;;;;;;4950383;28;20438;-76
2022/03/28 13:04:24;;;;;;;8.07;7.27;;;20.50;85.20;;;;;;4971571;28;20417;-76
2022/03/28 13:06:58;;;;;;;12.97;7.80;;;20.30;83.80;;;;;;4964047;28;20938;-75
2022/03/28 13:09:24;;;;;;;8.77;7.87;;;19.10;86.80;;;;;;4964671;28;20409;-75
2022/03/28 13:11:50;;;;;;;10.13;7.07;;;19.10;89.70;;;;;;4959865;28;20453;-75
2022/03/28 13:14:30;;;;;;;9.37;7.80;;;19.40;89.40;;;;;;4967478;28;20535;-75
2022/03/28 13:17:10;;;;;;;11.13;7.77;;;20.00;86.10;;;;;;4965643;28;20472;-75
2022/03/28 13:19:37;;;;;;;7.27;6.47;;;20.30;86.70;;;;;;4951404;28;20422;-75
2022/03/28 13:22:04;;;;;;;9.77;6.30;;;21.00;86.30;;;;;;4972624;28;20438;-75
2022/03/28 13:24:31;;;;;;;8.73;6.97;;;21.40;81.50;;;;;;4973500;28;20413;-75
2022/03/28 13:29:50;;;;;;;7.13;6.03;;;21.20;81.80;;;;;;4974432;28;20432;-76
2022/03/28 13:32:16;;;;;;;8.03;6.23;;;21.10;83.40;;;;;;4974113;28;20425;-77
2022/03/28 13:34:41;;;;;;;10.60;6.17;;;20.30;84.30;;;;;;4973899;28;20840;-78
2022/03/28 13:37:07;;;;;;;13.50;6.37;;;19.70;87.50;;;;;;4956182;28;20521;-76
2022/03/28 13:39:33;;;;;;;7.33;6.43;;;19.50;88.50;;;;;;4949421;29;20555;-76
2022/03/28 13:41:59;;;;;;;9.70;6.63;;;;;;;;;;4954459;29;20230;-76
2022/03/28 13:44:25;;;;;;;6.40;5.53;;;20.40;86.80;;;;;;4954397;29;20497;-76
2022/03/28 13:46:51;;;;;;;6.40;5.80;;;20.40;83.90;;;;;;4954252;29;20188;-76
2022/03/28 13:49:17;;;;;;;12.10;6.80;;;19.10;86.10;;;;;;4961495;28;20190;-77
2022/03/28 13:51:42;;;;;;;7.90;5.90;;;18.80;88.30;;;;;;4973702;28;20206;-76
2022/03/28 13:54:08;;;;;;;6.90;6.13;;;19.10;89.60;;;;;;4973574;28;20897;-78
2022/03/28 13:56:35;;;;;;;8.60;6.03;;;19.70;86.80;;;;;;4974528;28;20837;-78
2022/03/28 13:59:01;;;;;;;6.90;5.40;;;20.00;85.90;;;;;;4964407;28;20179;-78
2022/03/28 14:01:30;;;;;;;8.77;5.67;;;19.70;86.00;;;;;;4954738;28;20427;-79
2022/03/28 14:03:57;;;;;;;7.97;5.50;;;19.70;86.00;;;;;;4975359;28;20631;-79
2022/03/28 14:06:23;;;;;;;6.23;5.40;;;19.00;87.70;;;;;;4967564;28;20418;-78
2022/03/28 14:08:49;;;;;;;6.17;5.60;;;18.90;87.10;;;;;;4956399;29;20411;-78
2022/03/28 14:11:15;;;;;;;7.30;5.90;;;19.10;87.40;;;;;;4939334;29;20516;-78
2022/03/28 14:13:41;;;;;;;6.50;5.50;;;18.50;88.10;;;;;;4956284;29;20179;-79
2022/03/28 14:16:06;;;;;;;7.40;5.40;;;18.60;88.60;;;;;;4957098;29;20404;-79
2022/03/28 14:18:32;;;;;;;5.83;5.10;;;18.20;89.60;;;;;;4944381;29;20205;-79
2022/03/28 14:20:58;;;;;;;6.50;5.50;;;18.10;91.00;;;;;;4962147;28;20199;-79
2022/03/28 14:23:25;;;;;;;12.50;5.43;;;18.20;91.50;;;;;;4961813;28;20414;-79
2022/03/28 14:25:51;;;;;;;6.73;6.03;;;18.20;90.60;;;;;;4967896;28;20572;-79
2022/03/28 14:28:18;;;;;;;6.73;5.90;;;17.90;89.50;;;;;;4956442;28;20415;-78
2022/03/28 14:30:44;;;;;;;6.57;5.97;;;17.60;92.00;;;;;;4978236;28;20197;-77
2022/03/28 14:33:10;;;;;;;5.70;5.10;;;17.30;92.50;;;;;;4958568;28;20445;-79
2022/03/28 14:35:36;;;;;;;7.87;5.43;;;17.20;94.60;;;;;;4943094;29;20899;-78
2022/03/28 14:38:02;;;;;;;7.40;6.20;;;17.00;93.40;;;;;;4959948;28;20418;-77
2022/03/28 14:40:28;;;;;;;6.67;5.03;;;17.20;93.30;;;;;;4960153;29;20529;-78
2022/03/28 14:42:54;;;;;;;9.50;6.00;;;17.90;91.20;;;;;;4960129;28;20516;-78
2022/03/28 14:45:20;;;;;;;6.83;5.33;;;18.30;90.50;;;;;;4962093;28;20406;-77
2022/03/28 14:47:47;;;;;;;7.33;5.77;;;18.50;89.00;;;;;;4976140;28;20895;-77
2022/03/28 14:50:13;;;;;;;6.20;5.60;;;;;;;;;;4984657;28;20421;-78
2022/03/28 14:52:41;;;;;;;9.60;4.80;;;18.10;90.70;;;;;;4991353;28;20408;-79
2022/03/28 14:55:09;;;;;;;6.30;5.70;;;17.60;89.90;;;;;;4991515;28;20452;-78
2022/03/28 14:57:35;;;;;;;6.90;6.13;;;17.20;92.00;;;;;;4991047;28;20401;-79
2022/03/28 15:00:00;;;;;;;7.63;6.30;;;17.00;93.30;;;;;;4974842;28;20453;-79
2022/03/28 15:02:27;;;;;;;11.30;5.90;;;17.00;94.90;;;;;;4992154;28;20429;-78
2022/03/28 15:04:53;;;;;;;8.13;4.90;;;17.10;94.20;;;;;;4985868;28;20256;-78
2022/03/28 15:07:21;;;;;;;9.80;6.87;;;17.30;93.70;;;;;;4986355;28;20813;-80
2022/03/28 15:09:48;;;;;;;6.37;5.70;;;17.50;91.70;;;;;;4985981;28;20177;-80
2022/03/28 15:12:13;;;;;;;8.90;6.50;;;17.20;91.70;;;;;;4961186;28;20433;-79
2022/03/28 15:14:39;;;;;;;7.07;6.23;;;;;;;;;;4980776;28;20445;-79
2022/03/28 15:17:05;;;;;;;7.90;7.10;;;16.60;92.50;;;;;;4981051;28;20282;-80
2022/03/28 15:19:32;;;;;;;8.80;6.60;;;16.40;94.40;;;;;;4980288;28;20232;-80
2022/03/28 15:22:02;;;;;;;11.63;6.40;;;16.40;96.20;;;;;;4980738;28;20733;-79
2022/03/28 15:24:27;;;;;;;7.30;5.87;;;16.30;95.90;;;;;;4980561;28;20424;-79
2022/03/28 15:26:55;;;;;;;9.97;6.50;;;16.40;95.20;;;;;;4980368;28;20429;-80
2022/03/28 15:29:21;;;;;;;7.97;6.30;;;16.60;95.30;;;;;;4978034;28;20535;-80
2022/03/28 15:31:47;;;;;;;21.83;7.13;;;16.50;95.20;;;;;;4960112;28;20445;-79
2022/03/28 15:34:15;;;;;;;6.90;6.23;;;16.50;95.70;;;;;;4975996;28;20410;-79
2022/03/28 15:36:43;;;;;;;15.33;6.03;;;16.60;94.80;;;;;;4957814;29;20198;-80
2022/03/28 15:39:10;;;;;;;6.80;6.13;;;16.70;94.50;;;;;;4941536;29;20441;-78
2022/03/28 15:41:37;;;;;;;12.50;7.10;;;17.10;94.80;;;;;;4942558;29;20442;-79
2022/03/28 15:44:03;;;;;;;8.93;7.57;;;17.10;94.50;;;;;;4959288;29;20929;-80
2022/03/28 15:46:29;;;;;;;10.80;8.37;;;17.20;92.00;;;;;;4964506;28;20429;-78
2022/03/28 15:48:55;;;;;;;8.37;7.37;;;17.10;92.80;;;;;;4975237;28;20416;-78
2022/03/28 15:51:22;;;;;;;10.77;7.80;;;17.10;93.50;;;;;;4958337;28;20457;-78
2022/03/28 15:53:48;;;;;;;9.73;7.47;;;17.00;93.50;;;;;;4975797;28;20522;-77
2022/03/28 15:56:14;;;;;;;14.00;8.47;;;16.60;93.10;;;;;;4958318;28;20458;-77
2022/03/28 15:58:40;;;;;;;10.00;7.60;;;16.40;95.20;;;;;;4957634;28;20442;-78
2022/03/28 16:03:53;;;;;;;8.70;7.00;;;15.90;96.30;;;;;;4975515;28;20500;-78
2022/03/28 16:06:19;;;;;;;18.77;7.37;;;15.80;95.50;;;;;;4975353;28;20537;-78
2022/03/28 16:08:44;;;;;;;7.33;6.57;;;15.70;96.30;;;;;;4982993;28;20456;-77
2022/03/28 16:11:10;;;;;;;10.20;6.33;;;15.90;96.30;;;;;;4994732;28;20209;-77
2022/03/28 16:13:37;;;;;;;7.67;6.87;;;16.20;96.30;;;;;;4994666;28;20174;-77
2022/03/28 16:16:03;;;;;;;15.93;7.90;;;16.20;96.30;;;;;;4976335;28;20201;-77
2022/03/28 16:18:29;;;;;;;11.00;7.50;;;16.20;96.30;;;;;;4994916;28;20411;-78
2022/03/28 16:20:55;;;;;;;11.17;7.33;;;16.10;96.30;;;;;;4997114;28;20464;-78
2022/03/28 16:23:21;;;;;;;10.50;7.60;;;16.10;96.30;;;;;;4997168;28;20248;-78
2022/03/28 16:25:47;;;;;;;7.13;6.30;;;16.10;96.30;;;;;;4996837;28;20409;-78
2022/03/28 16:28:13;;;;;;;14.30;7.30;;;15.90;96.30;;;;;;4996108;28;20439;-78
2022/03/28 16:30:39;;;;;;;12.77;7.03;;;15.80;96.30;;;;;;4996145;28;20482;-77
2022/03/28 16:33:09;;;;;;;9.07;6.53;;;15.60;96.30;;;;;;4979401;28;20529;-78
2022/03/28 16:35:39;;;;;;;6.80;6.20;;;15.60;96.30;;;;;;4965718;28;20685;-78
2022/03/28 16:38:05;;;;;;;12.33;7.07;;;15.50;96.30;;;;;;4951669;28;20425;-78
2022/03/28 16:40:31;;;;;;;9.80;7.07;;;15.40;96.30;;;;;;4964624;28;20426;-78
2022/03/28 16:42:57;;;;;;;9.40;6.50;;;15.20;96.30;;;;;;4976300;28;20433;-78
2022/03/28 16:45:22;;;;;;;9.20;5.93;;;15.00;96.30;;;;;;4976831;28;20170;-77
2022/03/28 16:47:48;;;;;;;9.60;6.40;;;14.90;96.30;;;;;;4976437;28;20936;-77
2022/03/28 16:50:15;;;;;;;6.90;6.20;;;14.70;96.30;;;;;;4976929;28;20170;-78
2022/03/28 16:52:41;;;;;;;12.97;6.73;;;14.50;96.30;;;;;;4977362;28;20457;-78
2022/03/28 16:55:07;;;;;;;9.73;5.70;;;14.30;96.30;;;;;;4960074;28;20418;-78
2022/03/28 16:57:33;;;;;;;9.30;6.97;;;14.20;96.30;;;;;;4976664;28;20476;-78
2022/03/28 16:59:59;;;;;;;10.33;6.10;;;14.00;96.30;;;;;;4977694;28;20908;-78
2022/03/28 17:02:24;;;;;;;13.33;6.40;;;13.90;96.30;;;;;;4978103;28;20222;-78